createdAt,value
2023-05-04T03:54:29.776Z,2.18
2023-05-04T03:57:32.254Z,2.17
2023-05-04T04:00:35.148Z,2.47
2023-05-04T04:03:39.009Z,2.90
2023-05-04T04:06:43.313Z,3.04
2023-05-04T04:09:47.417Z,3.89
2023-05-04T04:12:50.213Z,4.47
2023-05-04T04:15:52.774Z,5.44
2023-05-04T04:18:55.417Z,5.64
2023-05-04T04:21:59.971Z,6.32
2023-05-04T04:25:04.112Z,6.44
2023-05-04T04:28:06.632Z,6.89
2023-05-04T04:31:09.456Z,8.28
2023-05-04T04:34:11.983Z,8.88
2023-05-04T04:37:14.557Z,9.57
2023-05-04T04:40:18.883Z,9.63
2023-05-04T04:43:21.459Z,9.95
2023-05-04T04:46:23.972Z,10.87
2023-05-04T04:49:27.455Z,10.75
2023-05-04T04:52:29.961Z,10.56
2023-05-04T04:55:34.620Z,10.70
2023-05-04T04:58:37.276Z,11.07
2023-05-04T05:01:39.776Z,11.16
2023-05-04T05:04:42.363Z,12.17
2023-05-04T05:07:44.915Z,12.30
2023-05-04T05:10:48.757Z,12.70
2023-05-04T05:13:51.546Z,12.33
2023-05-04T05:16:54.554Z,12.40
2023-05-04T05:19:57.110Z,11.96
2023-05-04T05:22:59.747Z,11.86
2023-05-04T05:26:03.696Z,11.67
2023-05-04T05:29:06.228Z,11.97
2023-05-04T05:32:08.729Z,11.68
2023-05-04T05:35:12.489Z,11.33
2023-05-04T05:38:16.218Z,11.18
2023-05-04T05:41:20.210Z,10.72
2023-05-04T05:44:22.708Z,10.54
2023-05-04T05:47:25.310Z,10.22
2023-05-04T05:50:27.803Z,10.41
2023-05-04T05:53:30.420Z,10.75
2023-05-04T05:56:34.272Z,10.90
2023-05-04T05:59:36.807Z,10.95
2023-05-04T06:02:39.368Z,11.04
2023-05-04T06:05:41.956Z,11.48
2023-05-04T06:08:44.953Z,11.81
2023-05-04T06:11:48.799Z,12.06
2023-05-04T06:14:51.553Z,11.87
2023-05-04T06:17:54.111Z,11.97
2023-05-04T06:20:59.742Z,12.17
2023-05-04T06:24:02.597Z,12.39
2023-05-04T06:27:06.808Z,12.71
2023-05-04T06:30:10.579Z,13.03
2023-05-04T06:33:13.414Z,13.22
2023-05-04T06:36:16.307Z,13.41
2023-05-04T06:39:19.256Z,13.31
2023-05-04T06:42:23.121Z,13.45
2023-05-04T06:45:25.625Z,13.68
2023-05-04T06:48:28.144Z,13.69
2023-05-04T06:51:30.724Z,14.03
2023-05-04T06:54:33.264Z,13.95
2023-05-04T06:57:37.107Z,14.40
2023-05-04T07:00:40.132Z,14.18
2023-05-04T07:03:42.761Z,14.21
2023-05-04T07:06:45.263Z,14.03
2023-05-04T07:09:48.268Z,14.37
2023-05-04T07:12:52.134Z,15.44
2023-05-04T07:15:54.798Z,15.28
2023-05-04T07:18:57.531Z,15.40
2023-05-04T07:22:00.815Z,15.34
2023-05-04T07:25:03.466Z,15.31
2023-05-04T07:28:07.392Z,15.43
2023-05-04T07:31:10.079Z,15.30
2023-05-04T07:34:12.579Z,15.98
2023-05-04T07:37:15.906Z,16.84
2023-05-04T07:40:18.692Z,16.20
2023-05-04T07:43:22.857Z,15.80
2023-05-04T07:46:25.391Z,16.20
2023-05-04T07:49:28.226Z,16.17
2023-05-04T07:52:30.852Z,16.19
2023-05-04T07:55:33.373Z,16.44
2023-05-04T07:58:37.203Z,17.02
2023-05-04T08:01:41.365Z,17.50
2023-05-04T08:04:45.783Z,16.66
2023-05-04T08:07:48.280Z,16.57
2023-05-04T08:10:50.867Z,16.39
2023-05-04T08:13:54.691Z,16.40
2023-05-04T08:16:57.262Z,16.79
2023-05-04T08:19:59.749Z,16.95
2023-05-04T08:23:02.741Z,17.54
2023-05-04T08:26:06.078Z,17.61
2023-05-04T08:29:10.916Z,17.65
2023-05-04T08:32:13.629Z,17.62
2023-05-04T08:35:16.373Z,17.46
2023-05-04T08:38:18.878Z,18.13
2023-05-04T08:41:22.053Z,18.17
2023-05-04T08:44:26.035Z,18.27
2023-05-04T08:47:29.798Z,17.78
2023-05-04T08:50:34.305Z,17.60
2023-05-04T08:53:38.891Z,18.07
2023-05-04T08:56:42.795Z,18.20
2023-05-04T08:59:50.520Z,18.78
2023-05-04T09:02:53.977Z,18.72
2023-05-04T09:05:57.814Z,18.45
2023-05-04T09:09:00.450Z,18.48
2023-05-04T09:12:02.982Z,18.57
2023-05-04T09:15:17.410Z,18.20
2023-05-04T09:18:20.299Z,18.57
2023-05-04T09:21:29.827Z,18.51
2023-05-04T09:24:32.963Z,18.98
2023-05-04T09:27:35.619Z,18.95
2023-05-04T09:30:39.517Z,19.20
2023-05-04T09:33:42.850Z,18.61
2023-05-04T09:36:45.439Z,19.54
2023-05-04T09:39:55.555Z,19.58
2023-05-04T09:42:58.535Z,19.62
2023-05-04T09:46:03.245Z,18.97
2023-05-04T09:49:05.964Z,19.31
2023-05-04T09:52:08.516Z,19.41
2023-05-04T09:55:14.469Z,19.12
2023-05-04T09:58:18.477Z,19.08
2023-05-04T10:01:23.119Z,18.38
2023-05-04T10:04:26.610Z,18.96
2023-05-04T10:07:31.863Z,19.51
2023-05-04T10:10:35.902Z,19.37
2023-05-04T10:13:39.142Z,19.17
2023-05-04T10:16:51.607Z,18.49
2023-05-04T10:20:08.251Z,18.35
2023-05-04T10:23:39.373Z,18.58
2023-05-04T10:27:03.250Z,17.90
2023-05-04T10:30:07.641Z,17.92
2023-05-04T10:33:13.260Z,18.22
2023-05-04T10:36:15.933Z,18.41
2023-05-04T10:39:20.412Z,18.56
2023-05-04T10:42:23.287Z,18.20
2023-05-04T10:45:35.611Z,18.71
2023-05-04T10:48:39.475Z,19.16
2023-05-04T10:51:48.992Z,19.02
2023-05-04T10:55:00.050Z,18.99
2023-05-04T10:58:02.880Z,19.26
2023-05-04T11:01:12.751Z,19.34
2023-05-04T11:04:25.466Z,18.81
2023-05-04T11:07:38.637Z,18.85
2023-05-04T11:10:41.833Z,19.28
2023-05-04T11:13:47.191Z,19.48
2023-05-04T11:16:49.817Z,19.01
2023-05-04T11:19:53.839Z,18.84
2023-05-04T11:22:56.510Z,18.76
2023-05-04T11:25:59.121Z,18.81
2023-05-04T11:29:01.749Z,19.52
2023-05-04T11:32:04.351Z,19.24
2023-05-04T11:35:11.528Z,19.06
2023-05-04T11:38:20.118Z,19.07
2023-05-04T11:41:27.096Z,19.01
2023-05-04T11:44:30.172Z,19.12
2023-05-04T11:47:32.746Z,19.32
2023-05-04T11:50:37.007Z,19.40
2023-05-04T11:53:40.670Z,19.44
2023-05-04T11:56:43.488Z,19.76
2023-05-04T11:59:49.493Z,19.97
2023-05-04T12:02:56.715Z,20.43
2023-05-04T12:06:01.948Z,20.23
2023-05-04T12:09:06.170Z,20.01
2023-05-04T12:12:08.834Z,20.24
2023-05-04T12:15:11.838Z,20.86
2023-05-04T12:18:29.455Z,21.38
2023-05-04T12:21:34.326Z,20.67
2023-05-04T12:24:36.968Z,20.77
2023-05-04T12:27:42.572Z,21.24
2023-05-04T12:30:45.119Z,22.00
2023-05-04T12:33:47.605Z,21.93
2023-05-04T12:36:52.292Z,21.25
2023-05-04T12:39:54.798Z,20.89
2023-05-04T12:42:57.298Z,20.20
2023-05-04T12:46:00.279Z,19.85
2023-05-04T12:49:03.025Z,19.47
2023-05-04T12:52:06.917Z,19.52
2023-05-04T12:55:09.844Z,19.72
2023-05-04T12:58:12.813Z,20.29
2023-05-04T13:01:15.511Z,20.58
2023-05-04T13:04:18.137Z,19.96
2023-05-04T13:07:21.958Z,19.80
2023-05-04T13:10:25.062Z,20.29
2023-05-04T13:13:29.368Z,20.51
2023-05-04T13:16:32.032Z,20.29
2023-05-04T13:19:34.597Z,20.51
2023-05-04T13:22:38.529Z,20.84
2023-05-04T13:25:41.085Z,20.67
2023-05-04T13:28:43.602Z,20.87
2023-05-04T13:31:46.128Z,20.98
2023-05-04T13:34:48.796Z,21.13
2023-05-04T13:37:52.652Z,20.83
2023-05-04T13:40:55.220Z,20.24
2023-05-04T13:43:57.719Z,20.01
2023-05-04T13:47:00.356Z,20.26
2023-05-04T13:50:02.976Z,20.10
2023-05-04T13:53:06.856Z,20.27
2023-05-04T13:56:09.541Z,20.53
2023-05-04T13:59:12.006Z,20.36
2023-05-04T14:02:14.520Z,20.49
2023-05-04T14:05:17.063Z,20.83
2023-05-04T14:08:20.885Z,21.19
2023-05-04T14:11:23.515Z,20.52
2023-05-04T14:14:26.113Z,20.28
2023-05-04T14:17:28.663Z,20.09
2023-05-04T14:20:31.217Z,20.18
2023-05-04T14:23:35.038Z,19.87
2023-05-04T14:26:37.960Z,20.08
2023-05-04T14:29:40.446Z,20.18
2023-05-04T14:32:42.982Z,20.51
2023-05-04T14:35:47.927Z,20.20
2023-05-04T14:38:52.130Z,20.15
2023-05-04T14:41:56.835Z,20.08
2023-05-04T14:44:59.690Z,19.91
2023-05-04T14:48:03.090Z,20.04
2023-05-04T14:51:05.802Z,20.24
2023-05-04T14:54:09.639Z,20.39
2023-05-04T14:57:12.624Z,19.91
2023-05-04T15:00:17.255Z,19.83
2023-05-04T15:03:19.865Z,19.47
2023-05-04T15:06:22.431Z,18.79
2023-05-04T15:09:26.412Z,18.78
2023-05-04T15:12:28.985Z,18.73
2023-05-04T15:15:31.532Z,18.78
2023-05-04T15:18:34.010Z,18.95
2023-05-04T15:21:36.533Z,18.98
2023-05-04T15:24:40.455Z,19.05
2023-05-04T15:27:44.403Z,18.89
2023-05-04T15:30:46.891Z,18.58
2023-05-04T15:33:49.655Z,18.51
2023-05-04T15:36:52.551Z,18.45
2023-05-04T15:39:57.861Z,18.49
2023-05-04T15:43:01.089Z,18.46
2023-05-04T15:46:03.560Z,18.48
2023-05-04T15:49:06.225Z,18.46
2023-05-04T15:52:10.442Z,18.45
2023-05-04T15:55:25.475Z,18.58
2023-05-04T15:58:28.987Z,18.49
2023-05-04T16:01:32.137Z,18.60
2023-05-04T16:04:34.695Z,18.64
2023-05-04T16:07:37.233Z,18.58
2023-05-04T16:10:41.049Z,18.39
2023-05-04T16:13:43.537Z,18.32
2023-05-04T16:16:46.080Z,18.17
2023-05-04T16:19:48.819Z,18.00
2023-05-04T16:22:51.316Z,17.84
2023-05-04T16:25:55.268Z,17.74
2023-05-04T16:28:57.800Z,17.63
2023-05-04T16:32:01.661Z,17.26
2023-05-04T16:35:04.190Z,16.63
2023-05-04T16:38:06.970Z,16.56
2023-05-04T16:41:11.002Z,16.32
2023-05-04T16:44:13.659Z,16.17
2023-05-04T16:47:16.258Z,16.06
2023-05-04T16:50:19.367Z,16.07
2023-05-04T16:53:21.971Z,15.78
2023-05-04T16:56:25.775Z,15.66
2023-05-04T16:59:29.264Z,15.69
2023-05-04T17:02:32.000Z,15.61
2023-05-04T17:05:35.003Z,15.56
2023-05-04T17:08:37.534Z,15.42
2023-05-04T17:11:41.397Z,15.37
2023-05-04T17:14:43.963Z,15.33
2023-05-04T17:17:46.773Z,15.32
2023-05-04T17:20:49.455Z,15.29
2023-05-04T17:23:51.954Z,15.23
2023-05-04T17:26:55.768Z,15.15
2023-05-04T17:29:58.277Z,15.09
2023-05-04T17:33:00.846Z,14.97
2023-05-04T17:36:03.973Z,14.90
2023-05-04T17:39:06.511Z,14.79
2023-05-04T17:42:10.748Z,14.66
2023-05-04T17:45:13.397Z,14.43
2023-05-04T17:48:16.423Z,14.27
2023-05-04T17:51:18.914Z,14.17
2023-05-04T17:54:21.390Z,13.94
2023-05-04T17:57:25.227Z,13.72
2023-05-04T18:00:27.971Z,13.53
2023-05-04T18:03:30.801Z,13.39
2023-05-04T18:06:33.606Z,13.23
2023-05-04T18:09:36.501Z,13.15
2023-05-04T18:12:40.901Z,13.06
2023-05-04T18:15:43.496Z,12.99
2023-05-04T18:18:46.011Z,12.90
2023-05-04T18:21:48.512Z,12.82
2023-05-04T18:24:50.996Z,12.74
2023-05-04T18:27:54.873Z,12.70
2023-05-04T18:30:57.407Z,12.72
2023-05-04T18:34:02.705Z,12.67
2023-05-04T18:37:05.210Z,12.62
2023-05-04T18:40:09.903Z,12.58
2023-05-04T18:43:13.976Z,12.49
2023-05-04T18:46:16.538Z,12.40
2023-05-04T18:49:19.062Z,12.35
2023-05-04T18:52:22.515Z,12.30
2023-05-04T18:55:25.239Z,12.18
2023-05-04T18:58:29.158Z,11.98
2023-05-04T19:01:31.691Z,11.79
2023-05-04T19:04:34.270Z,11.61
2023-05-04T19:07:37.014Z,11.56
2023-05-04T19:10:39.501Z,11.50
2023-05-04T19:13:43.551Z,11.37
2023-05-04T19:16:46.361Z,11.35
2023-05-04T19:19:48.932Z,11.32
2023-05-04T19:22:51.526Z,11.30
2023-05-04T19:25:54.083Z,11.24
2023-05-04T19:28:57.927Z,11.24
2023-05-04T19:32:05.545Z,11.17
2023-05-04T19:35:15.792Z,11.12
2023-05-04T19:38:18.282Z,11.13
2023-05-04T19:41:21.214Z,11.21
2023-05-04T19:44:25.051Z,11.31
2023-05-04T19:47:29.092Z,11.40
2023-05-04T19:50:32.081Z,11.39
2023-05-04T19:53:34.602Z,11.44
2023-05-04T19:56:37.104Z,11.45
2023-05-04T19:59:41.123Z,11.41
2023-05-04T20:02:43.840Z,11.36
2023-05-04T20:05:46.599Z,11.35
2023-05-04T20:08:49.203Z,11.28
2023-05-04T20:11:51.683Z,11.28
2023-05-04T20:14:55.517Z,11.20
2023-05-04T20:17:58.280Z,11.24
2023-05-04T20:21:00.812Z,11.18
2023-05-04T20:24:04.125Z,11.18
